createdAt,value
2019-01-26T14:38:28.452Z,88.03
2019-01-26T14:40:57.812Z,87.67
2019-01-26T14:43:27.209Z,86.88
2019-01-26T14:45:56.554Z,87.14
2019-01-26T14:48:25.903Z,86.54
2019-01-26T14:50:55.290Z,86.87
2019-01-26T14:53:24.669Z,86.80
2019-01-26T14:55:54.084Z,86.82
2019-01-26T14:58:23.473Z,86.96
2019-01-26T15:00:54.355Z,87.28
2019-01-26T15:03:23.782Z,87.20
2019-01-26T15:05:53.114Z,87.48
2019-01-26T15:08:22.469Z,87.38
2019-01-26T15:10:51.822Z,87.80
2019-01-26T15:13:21.172Z,87.95
2019-01-26T15:15:50.600Z,88.23
2019-01-26T15:18:20.977Z,88.19
2019-01-26T15:20:50.311Z,88.06
2019-01-26T15:23:19.634Z,88.36
2019-01-26T15:25:49.025Z,87.43
2019-01-26T15:28:18.394Z,88.10
2019-01-26T15:30:47.788Z,87.86
2019-01-26T15:33:17.149Z,88.26
2019-01-26T15:35:46.485Z,88.29
2019-01-26T15:38:15.869Z,88.26
2019-01-26T15:40:45.252Z,88.27
2019-01-26T15:43:14.897Z,88.10
2019-01-26T15:45:46.252Z,87.92
2019-01-26T15:48:15.631Z,87.32
2019-01-26T15:50:45.325Z,87.71
2019-01-26T15:53:14.692Z,87.64
2019-01-26T15:55:44.106Z,87.97
2019-01-26T15:58:13.474Z,87.85
2019-01-26T16:00:45.048Z,87.65
2019-01-26T16:03:14.849Z,87.64
2019-01-26T16:05:44.206Z,88.16
2019-01-26T16:08:13.664Z,88.15
2019-01-26T16:10:43.021Z,88.23
2019-01-26T16:13:12.407Z,88.20
2019-01-26T16:15:41.797Z,88.10
2019-01-26T16:18:13.867Z,88.25
2019-01-26T16:20:43.216Z,88.14
2019-01-26T16:23:12.569Z,88.98
2019-01-26T16:25:42.069Z,88.49
2019-01-26T16:28:11.408Z,88.39
2019-01-26T16:30:40.784Z,87.84
2019-01-26T16:33:10.142Z,88.46
2019-01-26T16:35:40.553Z,88.21
2019-01-26T16:38:10.022Z,88.31
2019-01-26T16:40:39.499Z,88.48
2019-01-26T16:43:08.958Z,88.12
2019-01-26T16:45:40.229Z,88.46
2019-01-26T16:48:12.334Z,87.97
2019-01-26T16:50:41.998Z,88.32
2019-01-26T16:53:11.506Z,88.40
2019-01-26T16:55:40.877Z,88.60
2019-01-26T16:58:10.333Z,88.23
2019-01-26T17:00:47.848Z,88.31
2019-01-26T17:03:17.200Z,88.76
2019-01-26T17:05:46.552Z,88.22
2019-01-26T17:08:16.008Z,88.22
2019-01-26T17:10:49.507Z,88.70
2019-01-26T17:13:18.954Z,88.85
2019-01-26T17:15:48.385Z,88.68
2019-01-26T17:18:17.762Z,88.37
2019-01-26T17:20:47.118Z,88.32
2019-01-26T17:23:16.529Z,88.23
2019-01-26T17:25:45.933Z,87.76
2019-01-26T17:28:15.332Z,87.57
2019-01-26T17:30:45.294Z,88.20
2019-01-26T17:33:14.647Z,87.97
2019-01-26T17:35:44.100Z,87.67
2019-01-26T17:38:13.475Z,87.97
2019-01-26T17:40:42.854Z,87.31
2019-01-26T17:43:12.455Z,87.50
2019-01-26T17:45:41.781Z,87.62
2019-01-26T17:48:11.298Z,87.99
2019-01-26T17:50:42.271Z,87.40
2019-01-26T17:53:11.904Z,87.31
2019-01-26T17:55:41.312Z,86.77
2019-01-26T17:58:10.718Z,86.70
2019-01-26T18:00:49.715Z,86.87
2019-01-26T18:03:19.117Z,86.29
2019-01-26T18:05:48.507Z,86.28
2019-01-26T18:08:17.992Z,85.76
2019-01-26T18:10:47.393Z,85.52
2019-01-26T18:13:16.798Z,85.73
2019-01-26T18:15:46.294Z,85.48
2019-01-26T18:18:15.762Z,85.25
2019-01-26T18:20:49.121Z,85.35
2019-01-26T18:23:18.991Z,85.58
2019-01-26T18:25:48.430Z,85.94
2019-01-26T18:28:17.864Z,86.20
2019-01-26T18:30:47.473Z,86.34
2019-01-26T18:33:16.876Z,86.15
2019-01-26T18:35:46.280Z,85.73
2019-01-26T18:38:16.597Z,86.37
2019-01-26T18:40:46.154Z,86.71
2019-01-26T18:43:15.714Z,86.70
2019-01-26T18:45:45.272Z,86.69
2019-01-26T18:48:14.665Z,86.88
2019-01-26T18:50:45.658Z,87.23
2019-01-26T18:53:15.163Z,86.61
2019-01-26T18:55:44.714Z,86.66
2019-01-26T18:58:14.181Z,86.70
2019-01-26T19:00:46.340Z,86.52
2019-01-26T19:03:48.225Z,86.89
2019-01-26T19:06:17.561Z,86.95
2019-01-26T19:08:46.998Z,86.62
2019-01-26T19:11:16.533Z,86.28
2019-01-26T19:31:11.459Z,85.21
2019-01-26T19:33:52.435Z,84.63
2019-01-26T19:36:23.620Z,84.53
2019-01-26T19:38:53.009Z,84.38
2019-01-26T19:41:22.438Z,84.46
2019-01-26T19:43:51.853Z,84.55
2019-01-26T19:46:21.277Z,84.00
2019-01-26T19:48:50.684Z,83.44
2019-01-26T19:51:20.034Z,83.82
2019-01-26T19:53:49.374Z,84.26
2019-01-26T19:56:18.715Z,84.22
2019-01-26T19:58:48.063Z,83.83
2019-01-26T20:01:19.636Z,84.00
2019-01-26T20:04:01.211Z,84.35
2019-01-26T20:06:30.597Z,84.37
2019-01-26T20:09:00.400Z,84.57
2019-01-26T20:11:29.805Z,84.12
2019-01-26T20:15:17.523Z,84.09
2019-01-26T20:17:53.373Z,84.19
2019-01-26T20:20:31.113Z,84.55
2019-01-26T20:23:00.467Z,85.17
2019-01-26T20:25:29.876Z,84.64
2019-01-26T20:27:59.218Z,84.67
2019-01-26T20:30:30.356Z,84.68
2019-01-26T20:32:59.779Z,84.88
2019-01-26T20:35:29.227Z,84.88
2019-01-26T20:37:58.584Z,84.74
2019-01-26T20:40:28.046Z,85.02
2019-01-26T20:42:57.694Z,85.37
2019-01-26T20:45:28.158Z,85.46
2019-01-26T20:47:57.714Z,85.50
2019-01-26T20:50:27.167Z,85.44
2019-01-26T20:52:56.845Z,85.73
2019-01-26T20:55:26.185Z,85.72
2019-01-26T20:57:55.898Z,85.72
2019-01-26T21:00:29.920Z,85.80
2019-01-26T21:02:59.305Z,85.90
2019-01-26T21:05:28.746Z,85.81
2019-01-26T21:07:58.124Z,86.00
2019-01-26T21:10:29.392Z,86.32
2019-01-26T21:12:59.122Z,86.20
2019-01-26T21:15:28.488Z,86.11
2019-01-26T21:17:57.937Z,86.37
2019-01-26T21:20:27.545Z,86.47
2019-01-26T21:22:56.953Z,86.60
2019-01-26T21:25:26.373Z,86.65
2019-01-26T21:27:55.712Z,85.88
2019-01-26T21:30:27.105Z,86.28
2019-01-26T21:32:57.241Z,86.36
2019-01-26T21:35:26.816Z,86.48
2019-01-26T21:37:56.191Z,86.44
2019-01-26T21:40:30.707Z,86.44
2019-01-26T21:43:01.071Z,86.42
2019-01-26T21:45:30.434Z,86.00
2019-01-26T21:47:59.755Z,86.07
2019-01-26T21:50:30.866Z,86.31
2019-01-26T21:53:00.338Z,86.38
2019-01-26T21:55:29.789Z,86.65
2019-01-26T21:57:59.140Z,86.59
2019-01-26T22:00:33.715Z,86.53
2019-01-26T22:03:03.510Z,86.47
2019-01-26T22:05:32.945Z,86.46
2019-01-26T22:08:02.249Z,86.32
2019-01-26T22:10:31.637Z,86.41
2019-01-26T22:13:01.031Z,86.22
2019-01-26T22:15:30.371Z,85.99
2019-01-26T22:17:59.725Z,86.15
2019-01-26T22:20:29.650Z,86.46
2019-01-26T22:22:59.247Z,86.57
2019-01-26T22:25:28.789Z,86.59
2019-01-26T22:27:58.648Z,86.60
2019-01-26T22:30:30.168Z,86.92
2019-01-26T22:32:59.598Z,86.73
2019-01-26T22:35:29.376Z,87.06
2019-01-26T22:37:59.020Z,86.75
2019-01-26T22:40:33.110Z,87.18
2019-01-26T22:43:02.594Z,87.19
2019-01-26T22:45:32.163Z,87.27
2019-01-26T22:48:01.502Z,87.77
2019-01-26T22:50:31.829Z,87.91
2019-01-26T22:53:01.231Z,88.00
2019-01-26T22:55:30.699Z,88.08
2019-01-26T22:58:00.021Z,88.20
2019-01-26T23:00:56.858Z,88.30
2019-01-26T23:03:53.377Z,88.48
2019-01-26T23:07:08.508Z,88.21
2019-01-26T23:10:00.634Z,88.62
2019-01-26T23:12:41.539Z,88.58
2019-01-26T23:15:51.782Z,88.82
2019-01-26T23:19:14.084Z,88.58
2019-01-26T23:22:33.291Z,88.82
2019-01-26T23:25:36.746Z,88.65
2019-01-26T23:28:36.978Z,88.74
2019-01-26T23:31:20.715Z,88.40
2019-01-26T23:33:51.910Z,88.42
2019-01-26T23:36:21.288Z,88.16
2019-01-26T23:38:50.748Z,88.41
2019-01-26T23:41:20.223Z,88.34
2019-01-26T23:43:49.722Z,88.30
2019-01-26T23:46:19.091Z,88.37
2019-01-26T23:48:48.647Z,88.50
2019-01-26T23:51:18.004Z,88.80
2019-01-26T23:53:47.436Z,89.07
2019-01-26T23:56:16.911Z,89.15
2019-01-26T23:58:46.270Z,88.76
